Time;durP1;ratioP1;P1;durP2;ratioP2;P2;SDS_P1;SDS_P2;PMS_P1;PMS_P2;Temp;Humidity;BMP_temperature;BMP_pressure;BME280_temperature;BME280_humidity;BME280_pressure;Samples;Min_cycle;Max_cycle;Signal;HPM_P1;HPM_P2
2023/03/02 00:00:24;;;;;;;10.77;9.32;;;;;;;-1.41;76.34;102228.94;6207520;23;20013;-81
2023/03/02 00:02:50;;;;;;;12.20;9.95;;;;;;;-1.42;76.97;102220.25;6206765;23;20032;-81
2023/03/02 00:05:15;;;;;;;10.93;9.35;;;;;;;-1.52;76.79;102216.53;6207329;23;20008;-80
2023/03/02 00:07:41;;;;;;;13.98;9.93;;;;;;;-1.47;76.85;102229.69;6204829;23;20032;-81
2023/03/02 00:10:07;;;;;;;10.85;9.18;;;;;;;-1.49;76.86;102222.69;6206916;23;20390;-81
2023/03/02 00:12:33;;;;;;;11.82;9.50;;;;;;;-1.55;76.99;102215.59;6206403;23;20653;-81
2023/03/02 00:14:58;;;;;;;13.48;9.38;;;;;;;-1.54;76.83;102223.47;6180833;23;20011;-80
2023/03/02 00:17:26;;;;;;;10.48;9.27;;;;;;;-1.52;77.46;102224.38;6205727;23;20000;-81
2023/03/02 00:19:53;;;;;;;13.45;9.82;;;;;;;-1.53;77.52;102234.78;6205225;23;20214;-81
2023/03/02 00:22:18;;;;;;;11.52;9.57;;;;;;;-1.59;77.74;102217.28;6206746;23;20008;-81
2023/03/02 00:24:44;;;;;;;12.98;9.52;;;;;;;-1.54;77.54;102217.38;6206767;23;20380;-81
2023/03/02 00:27:09;;;;;;;11.38;9.52;;;;;;;-1.52;77.49;102216.53;6206217;23;20012;-82
2023/03/02 00:29:34;;;;;;;10.80;9.10;;;;;;;-1.50;77.35;102216.59;6205336;23;20104;-81
2023/03/02 00:32:00;;;;;;;10.98;8.52;;;;;;;-1.49;77.44;102220.06;6206525;23;20015;-82
2023/03/02 00:34:26;;;;;;;9.75;8.48;;;;;;;-1.49;76.98;102223.56;6180404;23;20007;-81
2023/03/02 00:36:51;;;;;;;9.40;8.40;;;;;;;-1.49;77.09;102225.31;6204181;23;20398;-82
2023/03/02 00:39:18;;;;;;;12.32;8.45;;;;;;;-1.48;77.14;102227.94;6206489;23;20086;-80
2023/03/02 00:41:44;;;;;;;15.15;9.00;;;;;;;-1.51;77.03;102226.13;6205544;23;20008;-80
2023/03/02 00:44:16;;;;;;;10.85;8.63;;;;;;;-1.54;77.28;102227.81;6207460;23;20004;-82
2023/03/02 00:46:42;;;;;;;10.82;9.32;;;;;;;-1.63;77.64;102238.94;6205328;23;20338;-82
2023/03/02 00:49:07;;;;;;;11.32;8.50;;;;;;;-1.66;77.99;102233.66;6206521;23;20057;-80
2023/03/02 00:51:33;;;;;;;12.05;9.30;;;;;;;-1.67;77.96;102231.00;6205310;23;20091;-79
2023/03/02 00:54:01;;;;;;;12.48;9.20;;;;;;;-1.63;77.97;102231.13;6206887;23;20048;-81
2023/03/02 00:56:26;;;;;;;11.27;9.48;;;;;;;-1.64;78.15;102229.34;6204367;23;20001;-82
2023/03/02 00:58:52;;;;;;;9.55;8.55;;;;;;;-1.66;78.16;102228.44;6178748;23;20008;-81
2023/03/02 01:01:17;;;;;;;12.27;9.40;;;;;;;-1.72;78.02;102217.84;6206611;23;20059;-81
2023/03/02 01:03:43;;;;;;;10.88;8.63;;;;;;;-1.70;78.31;102224.00;6204687;23;20016;-81
2023/03/02 01:06:15;;;;;;;11.20;8.70;;;;;;;-1.68;78.24;102229.22;6207363;23;20005;-81
2023/03/02 01:08:41;;;;;;;10.47;8.60;;;;;;;-1.74;78.77;102218.69;6204038;23;20012;-81
2023/03/02 01:11:21;;;;;;;11.13;9.20;;;;;;;-1.78;78.37;102217.72;6205899;23;20248;-81
2023/03/02 01:13:47;;;;;;;10.57;9.20;;;;;;;-1.86;78.72;102208.84;6207191;23;20481;-80
2023/03/02 01:16:13;;;;;;;10.85;8.82;;;;;;;-1.88;79.43;102211.44;6180552;23;20024;-81
2023/03/02 01:18:39;;;;;;;10.65;9.38;;;;;;;-1.94;79.27;102205.19;6204897;23;20004;-80
2023/03/02 01:21:07;;;;;;;12.30;9.38;;;;;;;-1.99;79.82;102202.47;6207520;23;20087;-80
2023/03/02 01:23:33;;;;;;;12.75;9.32;;;;;;;-1.98;79.38;102203.34;6206706;23;20405;-81
2023/03/02 01:25:58;;;;;;;10.30;8.40;;;;;;;-1.95;79.55;102198.22;6205617;23;20005;-81
2023/03/02 01:28:24;;;;;;;12.02;9.23;;;;;;;-2.01;79.72;102199.84;6212381;23;20008;-80
2023/03/02 01:30:49;;;;;;;11.60;9.57;;;;;;;-2.05;79.59;102192.78;6223411;23;20287;-80
2023/03/02 01:33:14;;;;;;;10.85;9.30;;;;;;;-2.07;80.17;102198.81;6224529;23;20441;-79
2023/03/02 01:35:39;;;;;;;11.95;9.70;;;;;;;-2.13;80.14;102190.81;6223394;23;20001;-79
2023/03/02 01:38:05;;;;;;;12.80;9.50;;;;;;;-2.12;80.29;102200.44;6224789;23;20005;-79
2023/03/02 01:40:30;;;;;;;12.35;9.40;;;;;;;-2.09;80.57;102203.09;6216001;23;20083;-80
2023/03/02 01:43:01;;;;;;;10.07;9.07;;;;;;;-2.11;80.73;102203.06;6205209;23;20009;-81
2023/03/02 01:45:56;;;;;;;11.05;9.30;;;;;;;-2.13;80.14;102188.22;6206548;23;20024;-80
2023/03/02 01:48:57;;;;;;;11.25;9.48;;;;;;;-2.15;80.56;102195.16;6207472;23;20011;-81
2023/03/02 01:51:25;;;;;;;12.30;10.02;;;;;;;-2.19;80.85;102182.88;6202592;23;20061;-81
2023/03/02 01:53:57;;;;;;;12.95;10.13;;;;;;;-2.15;81.15;102188.19;6181601;23;20499;-80
2023/03/02 01:56:33;;;;;;;11.57;9.07;;;;;;;-2.19;81.01;102186.38;6209540;23;20001;-79
2023/03/02 01:59:04;;;;;;;12.85;10.13;;;;;;;-2.15;81.04;102188.19;6183308;23;20024;-80
2023/03/02 02:01:32;;;;;;;12.00;10.18;;;;;;;-2.18;81.06;102184.63;6209257;23;20432;-80
2023/03/02 02:03:58;;;;;;;10.95;9.43;;;;;;;-2.15;81.36;102182.09;6208439;23;20019;-80
2023/03/02 02:06:29;;;;;;;10.75;9.32;;;;;;;-2.24;81.31;102169.75;6207596;23;20009;-80
2023/03/02 02:08:57;;;;;;;11.30;9.27;;;;;;;-2.18;81.08;102172.47;6206196;23;20454;-81
2023/03/02 02:11:22;;;;;;;10.55;9.30;;;;;;;-2.22;81.52;102173.25;6208855;23;20087;-81
2023/03/02 02:13:48;;;;;;;11.80;9.52;;;;;;;-2.20;81.36;102173.31;6207688;23;20372;-79
2023/03/02 02:16:14;;;;;;;11.55;9.88;;;;;;;-2.19;81.32;102177.66;6206695;23;20027;-81
2023/03/02 02:18:41;;;;;;;11.57;9.75;;;;;;;-2.21;81.46;102175.03;6208041;23;20010;-81
2023/03/02 02:21:07;;;;;;;11.07;9.27;;;;;;;-2.28;81.47;102167.91;6209323;23;20037;-83
2023/03/02 02:24:03;;;;;;;12.10;9.80;;;;;;;-2.34;81.76;102162.53;6208376;23;20013;-82
2023/03/02 02:26:47;;;;;;;10.45;9.35;;;;;;;-2.27;81.82;102169.66;6200616;23;20339;-81
2023/03/02 02:29:17;;;;;;;;;;;;;;;-2.28;81.00;102170.50;6209660;23;20027;-81
2023/03/02 02:31:52;;;;;;;12.00;9.52;;;;;;;-2.25;82.12;102157.56;6207643;23;19990;-81
2023/03/02 02:34:34;;;;;;;11.13;9.82;;;;;;;-2.31;82.16;102153.06;6209340;23;20340;-81
2023/03/02 02:37:06;;;;;;;12.88;9.45;;;;;;;-2.30;82.22;102161.75;6207747;23;20622;-80
2023/03/02 02:39:35;;;;;;;13.35;9.80;;;;;;;-2.30;82.81;102166.97;6207381;23;20005;-81
2023/03/02 02:42:05;;;;;;;11.68;9.98;;;;;;;-2.36;82.74;102159.03;6209018;23;20008;-81
2023/03/02 02:44:31;;;;;;;12.38;10.25;;;;;;;-2.36;83.11;102156.41;6207463;23;20000;-80
2023/03/02 02:46:57;;;;;;;12.77;10.30;;;;;;;-2.35;83.61;102153.84;6206072;23;20466;-81
2023/03/02 02:49:32;;;;;;;13.52;10.40;;;;;;;-2.31;83.92;102153.06;6207255;23;20091;-80
2023/03/02 02:51:58;;;;;;;13.50;10.93;;;;;;;-2.30;83.84;102152.22;6206660;23;20116;-81
2023/03/02 02:54:24;;;;;;;13.30;10.80;;;;;;;-2.34;84.12;102155.63;6207300;23;20099;-81
2023/03/02 02:56:52;;;;;;;14.35;11.35;;;;;;;-2.30;85.02;102153.94;6179691;23;20036;-81
2023/03/02 02:59:27;;;;;;;13.15;10.85;;;;;;;-2.34;84.76;102160.84;6207689;23;20418;-81
2023/03/02 03:01:55;;;;;;;13.75;11.35;;;;;;;-2.36;85.38;102159.03;6207104;23;20024;-81
2023/03/02 03:04:25;;;;;;;15.57;11.75;;;;;;;-2.40;85.69;102154.59;6208145;23;20012;-81
2023/03/02 03:06:53;;;;;;;13.65;11.40;;;;;;;-2.37;86.06;102152.06;6206408;23;20300;-81
2023/03/02 03:09:18;;;;;;;14.80;12.52;;;;;;;-2.40;86.90;102155.47;6207194;23;20004;-82
2023/03/02 03:11:48;;;;;;;14.25;11.43;;;;;;;-2.42;87.26;102161.50;6207267;23;20012;-81
2023/03/02 03:14:25;;;;;;;15.63;12.38;;;;;;;-2.42;87.58;102156.28;6208330;23;20083;-81
2023/03/02 03:16:51;;;;;;;16.33;12.23;;;;;;;-2.44;88.05;102155.34;6209339;23;20046;-82
2023/03/02 03:19:30;;;;;;;17.38;12.55;;;;;;;-2.46;88.64;102157.94;6208813;23;20008;-81
2023/03/02 03:21:58;;;;;;;18.25;13.57;;;;;;;-2.44;89.21;102152.75;6208139;23;20009;-81
2023/03/02 03:24:25;;;;;;;17.23;13.63;;;;;;;-2.51;89.07;102149.09;6208063;23;20361;-81
2023/03/02 03:26:53;;;;;;;20.27;15.00;;;;;;;-2.52;90.24;102148.22;6207194;23;20035;-80
2023/03/02 03:29:23;;;;;;;19.80;15.02;;;;;;;-2.50;90.66;102143.06;6208833;23;20011;-81
2023/03/02 03:31:50;;;;;;;18.83;15.48;;;;;;;-2.47;91.03;102145.72;6208139;23;20846;-82
2023/03/02 03:34:15;;;;;;;19.80;14.98;;;;;;;-2.52;91.18;102148.22;6209162;23;20329;-80
2023/03/02 03:36:42;;;;;;;23.40;16.70;;;;;;;-2.58;92.06;102142.88;6206704;23;20084;-80
2023/03/02 03:39:08;;;;;;;21.92;16.35;;;;;;;-2.58;92.12;102140.28;6209490;23;20005;-80
2023/03/02 03:41:34;;;;;;;23.83;17.25;;;;;;;-2.61;92.83;102137.59;6208279;23;20032;-81
2023/03/02 03:43:59;;;;;;;22.80;17.50;;;;;;;-2.58;94.07;102140.28;6211036;23;20419;-80
2023/03/02 03:46:25;;;;;;;25.80;19.13;;;;;;;-2.57;94.06;102144.63;6214719;23;20001;-81
2023/03/02 03:48:50;;;;;;;25.77;18.50;;;;;;;-2.58;94.37;102137.66;6214415;23;20032;-80
2023/03/02 03:51:16;;;;;;;23.95;18.67;;;;;;;-2.62;94.25;102133.22;6218696;23;20009;-80
2023/03/02 03:53:42;;;;;;;25.50;19.25;;;;;;;-2.56;95.17;102150.72;6217875;23;20009;-80
2023/03/02 03:56:08;;;;;;;26.45;19.83;;;;;;;-2.58;95.67;102145.50;6217984;23;20008;-81
2023/03/02 03:58:34;;;;;;;26.88;20.95;;;;;;;-2.61;96.14;102142.81;6213815;23;20094;-81
2023/03/02 04:00:59;;;;;;;25.48;20.90;;;;;;;-2.65;96.38;102140.97;6207697;23;20047;-81
2023/03/02 04:03:25;;;;;;;30.02;22.10;;;;;;;-2.63;96.73;102148.84;6208279;23;20043;-81
2023/03/02 04:05:50;;;;;;;27.67;21.55;;;;;;;-2.63;96.64;102148.84;6180855;23;20004;-81
2023/03/02 04:08:16;;;;;;;28.40;21.52;;;;;;;-2.67;97.39;102140.06;6182470;23;20362;-81
2023/03/02 04:10:41;;;;;;;31.67;22.73;;;;;;;-2.64;97.19;102144.44;6207706;23;20051;-80
2023/03/02 04:13:07;;;;;;;33.03;23.00;;;;;;;-2.67;98.24;102144.41;6208038;23;20012;-81
2023/03/02 04:15:32;;;;;;;30.75;23.67;;;;;;;-2.65;98.00;102151.38;6207497;23;20009;-81
2023/03/02 04:17:59;;;;;;;34.28;23.88;;;;;;;-2.67;98.22;102142.66;6208332;23;20007;-81
2023/03/02 04:20:25;;;;;;;35.88;24.55;;;;;;;-2.67;98.41;102137.44;6208238;23;20165;-81
2023/03/02 04:22:53;;;;;;;35.30;24.30;;;;;;;-2.68;98.41;102140.88;6206730;23;20005;-81
2023/03/02 04:25:22;;;;;;;33.33;23.70;;;;;;;-2.72;99.08;102148.59;6206687;23;20039;-81
2023/03/02 04:27:49;;;;;;;33.88;24.20;;;;;;;-2.74;98.96;102145.09;6206187;23;20046;-81
2023/03/02 04:30:17;;;;;;;34.72;24.90;;;;;;;-2.75;99.74;102152.03;6180760;23;20490;-81
2023/03/02 04:32:43;;;;;;;35.20;24.92;;;;;;;-2.76;99.60;102143.31;6207295;23;20090;-80
2023/03/02 04:35:09;;;;;;;34.58;25.30;;;;;;;-2.73;100.00;102152.03;6180500;23;20435;-80
2023/03/02 04:37:35;;;;;;;34.97;25.38;;;;;;;-2.75;99.94;102149.41;6205522;23;20071;-81
2023/03/02 04:40:01;;;;;;;32.95;23.52;;;;;;;-2.74;100.00;102139.88;6207492;23;20494;-81
2023/03/02 04:42:26;;;;;;;35.47;25.13;;;;;;;-2.79;100.00;102139.75;6206089;23;19997;-81
2023/03/02 04:44:52;;;;;;;35.33;25.33;;;;;;;-2.81;100.00;102136.22;6207671;23;20082;-82
2023/03/02 04:47:17;;;;;;;35.90;25.63;;;;;;;-2.85;100.00;102142.19;6208588;23;20011;-80
2023/03/02 04:49:42;;;;;;;36.00;25.95;;;;;;;-2.89;100.00;102141.22;6206151;23;20442;-80
2023/03/02 04:52:08;;;;;;;36.75;24.80;;;;;;;-2.86;100.00;102137.84;6207786;23;20087;-80
2023/03/02 04:54:33;;;;;;;38.78;25.98;;;;;;;-2.89;100.00;102136.03;6206014;23;20005;-81
2023/03/02 04:56:59;;;;;;;36.10;24.23;;;;;;;-2.91;100.00;102140.34;6206143;23;20007;-80
2023/03/02 04:59:26;;;;;;;34.22;25.60;;;;;;;-2.87;100.00;102151.72;6206978;23;20005;-82
2023/03/02 05:01:54;;;;;;;36.20;25.30;;;;;;;-2.92;100.00;102141.19;6205243;23;20004;-81
2023/03/02 05:04:20;;;;;;;34.85;24.58;;;;;;;-2.98;100.00;102132.31;6206066;23;20025;-81
2023/03/02 05:06:45;;;;;;;35.67;24.52;;;;;;;-3.01;100.00;102136.63;6204900;23;20015;-81
2023/03/02 05:09:11;;;;;;;37.35;25.20;;;;;;;-3.04;100.00;102131.34;6205779;23;20407;-79
2023/03/02 05:11:36;;;;;;;38.28;25.83;;;;;;;-2.97;100.00;102142.75;6205533;23;20004;-80
2023/03/02 05:14:04;;;;;;;35.50;24.70;;;;;;;-2.98;100.00;102143.63;6205407;23;20004;-81
2023/03/02 05:16:32;;;;;;;38.92;26.58;;;;;;;-2.97;100.00;102147.97;6205387;23;20056;-80
2023/03/02 05:18:59;;;;;;;39.08;26.27;;;;;;;-3.02;100.00;102154.78;6205639;23;20099;-80
2023/03/02 05:21:24;;;;;;;38.58;26.73;;;;;;;-3.08;100.00;102145.13;6207110;23;20009;-78
2023/03/02 05:23:50;;;;;;;40.38;27.65;;;;;;;-3.01;100.00;102147.03;6208783;23;20082;-81
2023/03/02 05:26:15;;;;;;;40.20;27.55;;;;;;;-3.03;100.00;102147.84;6207893;23;20008;-81
2023/03/02 05:28:41;;;;;;;39.72;28.17;;;;;;;-3.01;100.00;102148.75;6181692;23;20008;-81
2023/03/02 05:31:06;;;;;;;39.05;27.73;;;;;;;-3.02;100.00;102154.78;6182772;23;20004;-80
2023/03/02 05:33:32;;;;;;;41.75;28.85;;;;;;;-3.04;100.00;102146.97;6208085;23;20363;-80
2023/03/02 05:35:58;;;;;;;41.70;29.27;;;;;;;-2.98;100.00;102151.44;6207856;23;20066;-81
2023/03/02 05:38:23;;;;;;;44.38;30.75;;;;;;;-3.01;100.00;102153.94;6208351;23;20414;-81
2023/03/02 05:40:49;;;;;;;43.22;30.10;;;;;;;-3.04;100.00;102159.97;6204383;23;20000;-81
2023/03/02 05:43:18;;;;;;;46.28;31.55;;;;;;;-3.04;100.00;102161.72;6209366;23;20477;-79
2023/03/02 05:45:44;;;;;;;47.67;29.67;;;;;;;-3.12;100.00;102158.91;6220263;23;20005;-80
2023/03/02 05:48:12;;;;;;;45.72;30.10;;;;;;;-3.15;100.00;102148.38;6221882;23;19993;-80
2023/03/02 05:50:37;;;;;;;49.42;31.75;;;;;;;-3.16;100.00;102154.44;6205976;23;20008;-81
2023/03/02 05:53:02;;;;;;;46.72;31.08;;;;;;;-3.16;100.00;102151.84;6204163;23;20009;-80
2023/03/02 05:55:28;;;;;;;47.35;31.85;;;;;;;-3.18;100.00;102148.31;6201505;23;20021;-81
2023/03/02 05:57:54;;;;;;;50.53;32.97;;;;;;;-3.16;100.00;102146.63;6202065;23;20004;-81
2023/03/02 06:00:20;;;;;;;52.85;34.25;;;;;;;-3.22;100.00;102141.25;6202119;23;20008;-80
2023/03/02 06:02:46;;;;;;;52.38;34.03;;;;;;;-3.19;100.00;102140.47;6201491;23;20087;-79
2023/03/02 06:05:17;;;;;;;55.92;33.47;;;;;;;-3.22;100.00;102145.59;6201779;23;20435;-80
2023/03/02 06:07:43;;;;;;;55.97;35.13;;;;;;;-3.17;100.00;102142.28;6206406;23;20427;-80
2023/03/02 06:10:11;;;;;;;50.90;32.75;;;;;;;-3.27;100.00;102137.66;6207854;23;20008;-80
2023/03/02 06:12:37;;;;;;;57.15;35.75;;;;;;;-3.23;100.00;102141.22;6209327;23;20013;-81
2023/03/02 06:15:04;;;;;;;56.70;35.10;;;;;;;-3.31;100.00;102146.22;6208570;23;20469;-81
2023/03/02 06:17:30;;;;;;;58.53;36.45;;;;;;;-3.30;100.00;102141.06;6207065;23;20007;-81
2023/03/02 06:19:55;;;;;;;60.38;37.85;;;;;;;-3.26;100.00;102144.63;6207190;23;20100;-81
2023/03/02 06:22:20;;;;;;;58.03;37.63;;;;;;;-3.24;100.00;102145.56;6206791;23;20007;-81
2023/03/02 06:24:46;;;;;;;63.90;39.28;;;;;;;-3.27;100.00;102142.84;6205204;23;20054;-81
2023/03/02 06:27:12;;;;;;;63.95;38.35;;;;;;;-3.26;100.00;102153.34;6207602;23;20004;-81
2023/03/02 06:29:37;;;;;;;65.25;40.10;;;;;;;-3.23;100.00;102149.91;6206887;23;20012;-81
2023/03/02 06:32:03;;;;;;;63.40;39.60;;;;;;;-3.24;100.00;102150.75;6208024;23;20004;-81
2023/03/02 06:34:28;;;;;;;61.78;40.42;;;;;;;-3.32;100.00;102141.88;6205510;23;20336;-81
2023/03/02 06:36:54;;;;;;;66.07;39.50;;;;;;;-3.26;100.00;102149.81;6206804;23;20004;-81
2023/03/02 06:39:20;;;;;;;67.90;41.40;;;;;;;-3.20;100.00;102154.34;6206483;23;20004;-81
2023/03/02 06:41:46;;;;;;;67.70;41.53;;;;;;;-3.21;100.00;102150.84;6205891;23;20036;-79
2023/03/02 06:44:13;;;;;;;68.60;42.00;;;;;;;-3.15;100.00;102153.59;6206825;23;20005;-80
2023/03/02 06:46:39;;;;;;;69.10;42.47;;;;;;;-3.14;100.00;102163.16;6180174;23;20005;-79
2023/03/02 06:49:05;;;;;;;67.95;41.22;;;;;;;-3.12;100.00;102164.09;6207769;23;20517;-81
2023/03/02 06:51:30;;;;;;;70.55;42.33;;;;;;;-3.06;100.00;102168.59;6208508;23;20001;-79
2023/03/02 06:53:56;;;;;;;70.75;42.38;;;;;;;-3.01;100.00;102161.75;6206990;23;20609;-80
2023/03/02 06:56:22;;;;;;;65.43;41.33;;;;;;;-2.99;100.00;102164.44;6206675;23;20001;-80
2023/03/02 06:58:47;;;;;;;68.90;41.83;;;;;;;-2.96;100.00;102167.13;6207303;23;20104;-81
2023/03/02 07:01:12;;;;;;;65.80;40.75;;;;;;;-2.98;100.00;102168.78;6206665;23;20489;-80
2023/03/02 07:03:37;;;;;;;67.00;40.33;;;;;;;-2.99;100.00;102164.44;6205231;23;22014;-79
2023/03/02 07:06:03;;;;;;;63.95;40.88;;;;;;;-2.96;100.00;102168.00;6206269;23;20386;-80
2023/03/02 07:08:29;;;;;;;65.43;39.45;;;;;;;-2.94;100.00;102162.81;6206429;23;20083;-80
2023/03/02 07:10:54;;;;;;;68.00;41.72;;;;;;;-2.89;100.00;102167.28;6206983;23;20080;-80
2023/03/02 07:13:20;;;;;;;70.35;41.72;;;;;;;-2.83;100.00;102169.19;6207021;23;20058;-79
2023/03/02 07:15:45;;;;;;;69.82;40.17;;;;;;;-2.80;100.00;102164.94;6204921;23;20004;-80
2023/03/02 07:18:10;;;;;;;63.00;39.17;;;;;;;-2.78;100.00;102168.44;6206168;23;20577;-80
2023/03/02 07:20:37;;;;;;;61.45;38.42;;;;;;;-2.73;100.00;102168.56;6206537;23;20028;-80
2023/03/02 07:23:03;;;;;;;63.08;40.05;;;;;;;-2.67;100.00;102176.56;6203749;23;20449;-80
2023/03/02 07:25:28;;;;;;;63.58;39.67;;;;;;;-2.61;100.00;102179.28;6204503;23;20431;-80
2023/03/02 07:27:53;;;;;;;63.90;40.58;;;;;;;-2.56;100.00;102182.88;6207381;23;20000;-81
2023/03/02 07:30:20;;;;;;;61.28;38.67;;;;;;;-2.50;100.00;102184.78;6207145;23;20000;-80
2023/03/02 07:32:46;;;;;;;65.85;40.03;;;;;;;-2.50;100.00;102176.97;6206774;23;20004;-80
2023/03/02 07:35:11;;;;;;;65.45;40.15;;;;;;;-2.47;100.00;102177.00;6178969;23;20004;-80
2023/03/02 07:37:37;;;;;;;61.17;38.60;;;;;;;-2.41;100.00;102182.38;6207016;23;20024;-80
2023/03/02 07:40:04;;;;;;;63.65;38.90;;;;;;;-2.33;100.00;102179.97;6207351;23;20032;-80
2023/03/02 07:42:30;;;;;;;57.75;36.80;;;;;;;-2.26;100.00;102182.75;6207804;23;20000;-79
2023/03/02 07:44:56;;;;;;;60.47;37.75;;;;;;;-2.20;100.00;102184.59;6215449;23;20087;-79
2023/03/02 07:47:21;;;;;;;62.70;37.30;;;;;;;-2.19;100.00;102181.16;6219654;23;20015;-79
2023/03/02 07:49:46;;;;;;;58.42;36.50;;;;;;;-2.15;100.00;102174.28;6219854;23;20051;-80
2023/03/02 07:52:12;;;;;;;59.83;36.25;;;;;;;-2.08;100.00;102182.28;6210851;23;20059;-81
2023/03/02 07:54:37;;;;;;;59.17;36.88;;;;;;;-2.04;100.00;102175.41;6179180;23;20048;-80
2023/03/02 07:57:03;;;;;;;56.15;34.85;;;;;;;-1.99;100.00;102176.38;6208380;23;20005;-80
2023/03/02 07:59:28;;;;;;;56.22;34.22;;;;;;;-1.89;100.00;102182.66;6208369;23;20000;-79
2023/03/02 08:01:55;;;;;;;54.08;35.13;;;;;;;-1.82;100.00;102190.69;6206006;23;20009;-80
2023/03/02 08:04:20;;;;;;;52.42;34.40;;;;;;;-1.82;100.00;102169.78;6206715;23;20020;-80
2023/03/02 08:06:46;;;;;;;52.28;33.17;;;;;;;-1.72;100.00;102180.41;6206061;23;20005;-80
2023/03/02 08:09:11;;;;;;;52.13;33.72;;;;;;;-1.65;100.00;102184.94;6180559;23;20016;-80
2023/03/02 08:11:37;;;;;;;51.20;33.58;;;;;;;-1.61;100.00;102179.81;6206627;23;20020;-78
2023/03/02 08:14:02;;;;;;;50.78;31.95;;;;;;;-1.56;100.00;102188.59;6205694;23;20747;-81
2023/03/02 08:16:28;;;;;;;48.30;32.55;;;;;;;-1.49;100.00;102180.91;6205231;23;20084;-80
2023/03/02 08:18:55;;;;;;;50.03;32.35;;;;;;;-1.47;100.00;102176.56;6207027;23;20654;-81
2023/03/02 08:21:22;;;;;;;48.92;31.73;;;;;;;-1.42;100.00;102182.75;6207604;23;20032;-80
2023/03/02 08:23:48;;;;;;;47.65;31.02;;;;;;;-1.36;100.00;102175.94;6207549;23;20102;-80
2023/03/02 08:26:14;;;;;;;48.83;31.73;;;;;;;-1.36;100.00;102168.09;6209020;23;20426;-80
2023/03/02 08:28:40;;;;;;;45.30;29.05;;;;;;;-1.23;99.31;102173.56;6209099;23;20073;-80
2023/03/02 08:31:06;;;;;;;47.67;30.30;;;;;;;-1.16;99.03;102184.16;6207286;23;20046;-80
2023/03/02 08:33:32;;;;;;;42.75;28.30;;;;;;;-1.11;97.33;102176.41;6205669;23;20008;-80
2023/03/02 08:36:11;;;;;;;46.45;29.15;;;;;;;-1.03;96.74;102186.16;6206723;23;20009;-78
2023/03/02 08:38:36;;;;;;;43.90;28.02;;;;;;;-0.97;96.82;102168.81;6205990;23;20067;-80
2023/03/02 08:41:05;;;;;;;37.38;25.70;;;;;;;-0.87;95.83;102176.84;6177912;23;20513;-79
2023/03/02 08:43:30;;;;;;;39.80;27.00;;;;;;;-0.77;94.46;102172.66;6205032;23;20370;-80
2023/03/02 08:45:58;;;;;;;40.55;26.10;;;;;;;-0.65;93.20;102177.22;6206876;23;20035;-80
2023/03/02 08:48:25;;;;;;;39.85;25.83;;;;;;;-0.56;92.29;102182.59;6206178;23;20070;-81
2023/03/02 08:50:59;;;;;;;37.55;25.50;;;;;;;-0.51;92.45;102183.53;6206321;23;20031;-80
2023/03/02 08:53:25;;;;;;;39.00;26.38;;;;;;;-0.42;91.98;102183.69;6206646;23;20001;-81
2023/03/02 08:55:51;;;;;;;42.10;26.00;;;;;;;-0.40;91.10;102183.72;6178395;23;20009;-80
2023/03/02 08:58:17;;;;;;;40.85;26.92;;;;;;;-0.31;90.95;102178.63;6207044;23;20001;-80
2023/03/02 09:00:43;;;;;;;35.97;24.58;;;;;;;-0.26;90.46;102177.81;6206345;23;20373;-80
2023/03/02 09:03:08;;;;;;;36.83;24.98;;;;;;;-0.20;90.17;102166.59;6204240;23;20008;-79
2023/03/02 09:05:34;;;;;;;36.75;24.83;;;;;;;-0.15;89.43;102170.16;6204663;23;20016;-80
2023/03/02 09:08:00;;;;;;;36.72;24.88;;;;;;;-0.07;88.50;102167.63;6206524;23;20019;-79
2023/03/02 09:10:26;;;;;;;33.60;22.95;;;;;;;0.00;86.38;102156.41;6206745;23;20005;-80
2023/03/02 09:12:51;;;;;;;32.80;23.25;;;;;;;0.12;86.25;102155.66;6206089;23;20091;-79
2023/03/02 09:15:17;;;;;;;31.95;23.33;;;;;;;0.27;85.71;102157.63;6206203;23;20507;-80
2023/03/02 09:17:42;;;;;;;33.85;22.88;;;;;;;0.36;84.56;102155.97;6205559;23;20130;-79
2023/03/02 09:20:08;;;;;;;34.30;23.30;;;;;;;0.49;83.81;102157.00;6206938;23;20062;-80
2023/03/02 09:22:34;;;;;;;33.42;23.05;;;;;;;0.58;82.95;102153.59;6206120;23;20007;-79
2023/03/02 09:25:00;;;;;;;31.70;22.35;;;;;;;0.78;82.43;102156.44;6205534;23;20000;-80
2023/03/02 09:27:26;;;;;;;29.73;21.60;;;;;;;1.16;80.04;102157.69;6206566;23;20104;-79
2023/03/02 09:29:51;;;;;;;31.15;21.45;;;;;;;1.92;76.37;102151.25;6206536;23;20009;-80
2023/03/02 09:32:17;;;;;;;28.52;20.05;;;;;;;3.04;72.27;102157.75;6206297;23;20068;-79
2023/03/02 09:34:42;;;;;;;28.75;20.05;;;;;;;4.28;67.00;102141.81;6204292;23;20075;-81
2023/03/02 09:37:07;;;;;;;29.17;19.77;;;;;;;5.41;61.32;102145.47;6206769;23;20422;-81
2023/03/02 09:39:35;;;;;;;28.02;19.45;;;;;;;6.62;58.36;102144.16;6206028;23;20012;-80
2023/03/02 09:42:24;;;;;;;25.55;18.20;;;;;;;7.93;56.55;102149.06;6206343;23;20004;-81
2023/03/02 09:44:55;;;;;;;24.83;17.73;;;;;;;8.09;50.29;102142.56;6204604;23;20011;-80
2023/03/02 09:47:51;;;;;;;25.38;18.63;;;;;;;9.03;51.17;102148.50;6215947;23;20009;-79
2023/03/02 09:50:22;;;;;;;25.20;17.98;;;;;;;9.60;48.23;102140.88;6199632;23;20040;-80
2023/03/02 09:53:10;;;;;;;22.67;17.33;;;;;;;11.20;48.38;102145.09;6215895;23;20831;-80
2023/03/02 09:55:36;;;;;;;23.10;17.33;;;;;;;11.94;42.00;102130.13;6206643;23;19996;-81
2023/03/02 09:58:11;;;;;;;21.67;16.90;;;;;;;11.91;41.31;102136.47;6206718;23;20583;-81
2023/03/02 10:00:41;;;;;;;23.50;17.75;;;;;;;12.07;39.58;102136.75;6206577;23;20004;-81
2023/03/02 10:03:16;;;;;;;21.83;16.90;;;;;;;12.00;39.30;102124.59;6206288;23;20008;-79
2023/03/02 10:05:45;;;;;;;19.88;16.20;;;;;;;12.66;37.91;102130.97;6204845;23;20012;-81
2023/03/02 10:08:19;;;;;;;23.70;16.42;;;;;;;12.97;37.38;102132.44;6208674;23;20060;-81
2023/03/02 10:10:56;;;;;;;23.80;16.23;;;;;;;13.08;35.32;102131.97;6208319;23;20513;-81
2023/03/02 10:13:29;;;;;;;30.17;16.17;;;;;;;13.29;35.29;102127.59;6206827;23;20031;-80
2023/03/02 10:16:02;;;;;;;21.60;15.93;;;;;;;13.43;35.68;102126.09;6207896;23;20062;-80
2023/03/02 10:18:52;;;;;;;22.07;16.23;;;;;;;14.41;36.14;102128.88;6208470;23;20082;-80
2023/03/02 10:21:34;;;;;;;21.90;15.73;;;;;;;14.36;34.28;102131.78;6208716;23;20266;-80
2023/03/02 10:24:25;;;;;;;21.23;15.95;;;;;;;14.39;34.56;102130.78;6207314;23;20315;-80
2023/03/02 10:26:58;;;;;;;20.90;15.75;;;;;;;14.12;32.80;102130.22;6200036;23;20008;-80
2023/03/02 10:29:45;;;;;;;19.87;15.63;;;;;;;14.81;33.86;102135.94;6207673;23;20028;-80
2023/03/02 10:32:19;;;;;;;20.38;15.93;;;;;;;14.77;32.60;102128.13;6208718;23;20243;-80
2023/03/02 10:34:45;;;;;;;20.90;15.13;;;;;;;15.33;31.19;102133.38;6206499;23;20015;-81
2023/03/02 10:37:24;;;;;;;18.20;15.07;;;;;;;15.56;32.02;102131.34;6207778;23;20019;-81
2023/03/02 10:39:53;;;;;;;20.33;15.18;;;;;;;15.79;30.58;102117.63;6207187;23;20423;-80
2023/03/02 10:42:24;;;;;;;18.50;14.05;;;;;;;16.64;29.24;102114.78;6207588;23;20098;-79
2023/03/02 10:44:54;;;;;;;19.58;14.52;;;;;;;16.68;28.36;102112.81;6206022;23;20012;-80
2023/03/02 10:47:25;;;;;;;16.92;14.02;;;;;;;16.66;28.97;102120.06;6207752;23;20036;-81
2023/03/02 10:49:53;;;;;;;21.63;15.55;;;;;;;17.17;28.38;102110.84;6207959;23;20012;-81
2023/03/02 10:52:21;;;;;;;20.80;15.25;;;;;;;18.00;27.73;102105.03;6207283;23;20010;-81
2023/03/02 10:54:46;;;;;;;18.98;15.38;;;;;;;17.93;26.74;102093.75;6206760;23;20146;-79
2023/03/02 10:57:37;;;;;;;18.13;14.60;;;;;;;18.22;27.06;102102.72;6208133;23;20528;-79
2023/03/02 11:00:22;;;;;;;18.48;14.68;;;;;;;17.29;29.22;102106.59;6207339;23;20003;-80
2023/03/02 11:02:54;;;;;;;17.73;14.60;;;;;;;16.66;28.34;102104.81;6178289;23;20024;-81
2023/03/02 11:05:43;;;;;;;17.95;14.85;;;;;;;17.06;28.50;102101.69;6207786;23;20395;-79
2023/03/02 11:08:18;;;;;;;18.65;14.93;;;;;;;16.52;27.36;102109.22;6206397;23;20363;-80
2023/03/02 11:10:54;;;;;;;17.80;14.48;;;;;;;16.55;28.45;102114.41;6207126;23;20043;-81
2023/03/02 11:13:26;;;;;;;18.05;14.68;;;;;;;16.64;27.61;102108.53;6206002;23;20108;-81